sensor_id;sensor_type;location;lat;lon;timestamp;P1;durP1;ratioP1;P2;durP2;ratioP2
6143;SDS011;3103;49.492;8.474;2024-01-15T00:00:22;22.27;;;9.77;;
6143;SDS011;3103;49.492;8.474;2024-01-15T00:02:49;21.63;;;9.50;;
6143;SDS011;3103;49.492;8.474;2024-01-15T00:05:15;23.07;;;10.27;;
6143;SDS011;3103;49.492;8.474;2024-01-15T00:07:42;21.17;;;9.83;;
6143;SDS011;3103;49.492;8.474;2024-01-15T00:10:09;20.87;;;10.07;;
6143;SDS011;3103;49.492;8.474;2024-01-15T00:12:36;21.20;;;9.13;;
6143;SDS011;3103;49.492;8.474;2024-01-15T00:15:03;17.17;;;8.30;;
6143;SDS011;3103;49.492;8.474;2024-01-15T00:17:31;21.63;;;9.40;;
6143;SDS011;3103;49.492;8.474;2024-01-15T00:19:58;18.33;;;9.10;;
6143;SDS011;3103;49.492;8.474;2024-01-15T00:22:25;18.70;;;8.17;;
6143;SDS011;3103;49.492;8.474;2024-01-15T00:24:53;23.63;;;8.53;;
6143;SDS011;3103;49.492;8.474;2024-01-15T00:27:20;15.27;;;8.53;;
6143;SDS011;3103;49.492;8.474;2024-01-15T00:29:47;14.93;;;7.47;;
6143;SDS011;3103;49.492;8.474;2024-01-15T00:32:14;16.43;;;8.57;;
6143;SDS011;3103;49.492;8.474;2024-01-15T00:34:41;14.57;;;7.63;;
6143;SDS011;3103;49.492;8.474;2024-01-15T00:37:09;18.43;;;8.20;;
6143;SDS011;3103;49.492;8.474;2024-01-15T00:39:36;16.47;;;7.83;;
6143;SDS011;3103;49.492;8.474;2024-01-15T00:42:03;18.27;;;7.77;;
6143;SDS011;3103;49.492;8.474;2024-01-15T00:44:30;15.17;;;6.90;;
6143;SDS011;3103;49.492;8.474;2024-01-15T00:46:57;15.23;;;7.63;;
6143;SDS011;3103;49.492;8.474;2024-01-15T00:49:24;19.70;;;9.27;;
6143;SDS011;3103;49.492;8.474;2024-01-15T00:51:53;15.83;;;7.40;;
6143;SDS011;3103;49.492;8.474;2024-01-15T00:54:20;16.93;;;8.13;;
6143;SDS011;3103;49.492;8.474;2024-01-15T00:56:47;16.43;;;7.60;;
6143;SDS011;3103;49.492;8.474;2024-01-15T00:59:14;14.97;;;7.67;;
6143;SDS011;3103;49.492;8.474;2024-01-15T01:01:42;18.47;;;9.17;;
6143;SDS011;3103;49.492;8.474;2024-01-15T01:04:10;18.47;;;8.27;;
6143;SDS011;3103;49.492;8.474;2024-01-15T01:06:38;15.27;;;7.03;;
6143;SDS011;3103;49.492;8.474;2024-01-15T01:09:05;14.63;;;7.77;;
6143;SDS011;3103;49.492;8.474;2024-01-15T01:11:32;22.57;;;8.93;;
6143;SDS011;3103;49.492;8.474;2024-01-15T01:13:59;13.23;;;7.83;;
6143;SDS011;3103;49.492;8.474;2024-01-15T01:16:27;20.20;;;9.50;;
6143;SDS011;3103;49.492;8.474;2024-01-15T01:18:54;17.40;;;8.50;;
6143;SDS011;3103;49.492;8.474;2024-01-15T01:21:21;18.73;;;8.83;;
6143;SDS011;3103;49.492;8.474;2024-01-15T01:23:49;24.30;;;10.47;;
6143;SDS011;3103;49.492;8.474;2024-01-15T01:26:16;18.50;;;8.20;;
6143;SDS011;3103;49.492;8.474;2024-01-15T01:28:44;19.80;;;7.93;;
6143;SDS011;3103;49.492;8.474;2024-01-15T01:31:11;20.37;;;7.97;;
6143;SDS011;3103;49.492;8.474;2024-01-15T01:33:38;18.23;;;8.70;;
6143;SDS011;3103;49.492;8.474;2024-01-15T01:36:07;19.73;;;9.03;;
6143;SDS011;3103;49.492;8.474;2024-01-15T01:38:36;17.60;;;8.07;;
6143;SDS011;3103;49.492;8.474;2024-01-15T01:41:03;17.53;;;7.90;;
6143;SDS011;3103;49.492;8.474;2024-01-15T01:43:30;20.00;;;7.67;;
6143;SDS011;3103;49.492;8.474;2024-01-15T01:45:57;19.47;;;7.33;;
6143;SDS011;3103;49.492;8.474;2024-01-15T01:48:26;18.97;;;8.50;;
6143;SDS011;3103;49.492;8.474;2024-01-15T01:50:54;19.47;;;8.73;;
6143;SDS011;3103;49.492;8.474;2024-01-15T01:53:27;16.80;;;7.30;;
6143;SDS011;3103;49.492;8.474;2024-01-15T01:55:56;18.50;;;7.63;;
6143;SDS011;3103;49.492;8.474;2024-01-15T01:58:24;21.00;;;8.43;;
6143;SDS011;3103;49.492;8.474;2024-01-15T02:00:52;17.87;;;8.47;;
6143;SDS011;3103;49.492;8.474;2024-01-15T02:03:20;19.93;;;8.57;;
6143;SDS011;3103;49.492;8.474;2024-01-15T02:05:48;19.50;;;8.37;;
6143;SDS011;3103;49.492;8.474;2024-01-15T02:08:16;18.30;;;9.10;;
6143;SDS011;3103;49.492;8.474;2024-01-15T02:10:43;15.13;;;7.57;;
6143;SDS011;3103;49.492;8.474;2024-01-15T02:13:10;20.57;;;9.77;;
6143;SDS011;3103;49.492;8.474;2024-01-15T02:15:37;18.70;;;9.27;;
6143;SDS011;3103;49.492;8.474;2024-01-15T02:18:05;23.03;;;8.50;;
6143;SDS011;3103;49.492;8.474;2024-01-15T02:20:35;26.67;;;10.57;;
6143;SDS011;3103;49.492;8.474;2024-01-15T02:25:37;16.60;;;9.07;;
6143;SDS011;3103;49.492;8.474;2024-01-15T02:28:09;17.97;;;8.37;;
6143;SDS011;3103;49.492;8.474;2024-01-15T02:30:37;20.20;;;9.37;;
6143;SDS011;3103;49.492;8.474;2024-01-15T02:33:08;19.60;;;9.00;;
6143;SDS011;3103;49.492;8.474;2024-01-15T02:35:36;21.73;;;10.30;;
6143;SDS011;3103;49.492;8.474;2024-01-15T02:38:04;20.20;;;8.87;;
6143;SDS011;3103;49.492;8.474;2024-01-15T02:40:31;21.63;;;9.87;;
6143;SDS011;3103;49.492;8.474;2024-01-15T02:42:59;18.13;;;9.33;;
6143;SDS011;3103;49.492;8.474;2024-01-15T02:45:26;17.80;;;7.87;;
6143;SDS011;3103;49.492;8.474;2024-01-15T02:47:53;17.13;;;7.67;;
6143;SDS011;3103;49.492;8.474;2024-01-15T02:50:20;18.07;;;8.00;;
6143;SDS011;3103;49.492;8.474;2024-01-15T02:52:47;17.03;;;8.03;;
6143;SDS011;3103;49.492;8.474;2024-01-15T02:55:14;18.13;;;8.53;;
6143;SDS011;3103;49.492;8.474;2024-01-15T02:57:41;17.13;;;7.90;;
6143;SDS011;3103;49.492;8.474;2024-01-15T03:00:09;15.27;;;8.50;;
6143;SDS011;3103;49.492;8.474;2024-01-15T03:02:36;18.10;;;8.97;;
6143;SDS011;3103;49.492;8.474;2024-01-15T03:05:14;17.40;;;7.73;;
6143;SDS011;3103;49.492;8.474;2024-01-15T03:07:42;16.43;;;7.13;;
6143;SDS011;3103;49.492;8.474;2024-01-15T03:10:09;15.73;;;7.80;;
6143;SDS011;3103;49.492;8.474;2024-01-15T03:12:36;14.57;;;6.63;;
6143;SDS011;3103;49.492;8.474;2024-01-15T03:15:03;16.67;;;8.17;;
6143;SDS011;3103;49.492;8.474;2024-01-15T03:17:31;15.47;;;7.37;;
6143;SDS011;3103;49.492;8.474;2024-01-15T03:19:58;15.80;;;7.17;;
6143;SDS011;3103;49.492;8.474;2024-01-15T03:22:25;16.80;;;7.20;;
6143;SDS011;3103;49.492;8.474;2024-01-15T03:24:52;13.90;;;7.83;;
6143;SDS011;3103;49.492;8.474;2024-01-15T03:27:19;17.37;;;8.53;;
6143;SDS011;3103;49.492;8.474;2024-01-15T03:29:46;16.70;;;8.93;;
6143;SDS011;3103;49.492;8.474;2024-01-15T03:32:13;14.00;;;5.93;;
6143;SDS011;3103;49.492;8.474;2024-01-15T03:34:42;13.60;;;7.13;;
6143;SDS011;3103;49.492;8.474;2024-01-15T03:37:09;15.27;;;7.47;;
6143;SDS011;3103;49.492;8.474;2024-01-15T03:39:36;11.80;;;6.30;;
6143;SDS011;3103;49.492;8.474;2024-01-15T03:42:04;19.23;;;7.73;;
6143;SDS011;3103;49.492;8.474;2024-01-15T03:44:31;12.23;;;6.53;;
6143;SDS011;3103;49.492;8.474;2024-01-15T03:46:58;17.70;;;7.90;;
6143;SDS011;3103;49.492;8.474;2024-01-15T03:49:25;13.67;;;6.90;;
6143;SDS011;3103;49.492;8.474;2024-01-15T03:51:52;15.93;;;7.67;;
6143;SDS011;3103;49.492;8.474;2024-01-15T03:54:19;17.60;;;7.67;;
6143;SDS011;3103;49.492;8.474;2024-01-15T03:56:46;14.20;;;7.67;;
6143;SDS011;3103;49.492;8.474;2024-01-15T03:59:13;21.20;;;8.60;;
6143;SDS011;3103;49.492;8.474;2024-01-15T04:01:40;12.80;;;6.83;;
6143;SDS011;3103;49.492;8.474;2024-01-15T04:04:08;17.23;;;7.53;;
6143;SDS011;3103;49.492;8.474;2024-01-15T04:06:35;18.60;;;7.70;;
6143;SDS011;3103;49.492;8.474;2024-01-15T04:09:02;14.17;;;6.73;;
6143;SDS011;3103;49.492;8.474;2024-01-15T04:11:29;17.33;;;8.20;;
6143;SDS011;3103;49.492;8.474;2024-01-15T04:13:56;18.03;;;7.70;;
6143;SDS011;3103;49.492;8.474;2024-01-15T04:16:23;17.47;;;7.83;;
6143;SDS011;3103;49.492;8.474;2024-01-15T04:18:50;13.43;;;6.87;;
6143;SDS011;3103;49.492;8.474;2024-01-15T04:21:17;15.10;;;7.27;;
6143;SDS011;3103;49.492;8.474;2024-01-15T04:23:45;14.23;;;6.43;;
6143;SDS011;3103;49.492;8.474;2024-01-15T04:26:11;14.87;;;7.07;;
6143;SDS011;3103;49.492;8.474;2024-01-15T04:28:38;13.90;;;6.90;;
6143;SDS011;3103;49.492;8.474;2024-01-15T04:31:05;13.57;;;7.03;;
6143;SDS011;3103;49.492;8.474;2024-01-15T04:33:33;17.07;;;7.73;;
6143;SDS011;3103;49.492;8.474;2024-01-15T04:36:04;14.57;;;7.23;;
6143;SDS011;3103;49.492;8.474;2024-01-15T04:38:32;13.87;;;7.40;;
6143;SDS011;3103;49.492;8.474;2024-01-15T04:40:59;14.83;;;7.53;;
6143;SDS011;3103;49.492;8.474;2024-01-15T04:43:26;14.20;;;7.80;;
6143;SDS011;3103;49.492;8.474;2024-01-15T04:45:53;11.00;;;5.90;;
6143;SDS011;3103;49.492;8.474;2024-01-15T04:48:20;14.10;;;6.87;;
6143;SDS011;3103;49.492;8.474;2024-01-15T04:50:49;18.03;;;6.93;;
6143;SDS011;3103;49.492;8.474;2024-01-15T04:53:16;13.63;;;7.03;;
6143;SDS011;3103;49.492;8.474;2024-01-15T04:55:43;14.00;;;7.13;;
6143;SDS011;3103;49.492;8.474;2024-01-15T04:58:10;13.63;;;7.13;;
6143;SDS011;3103;49.492;8.474;2024-01-15T05:00:37;14.47;;;7.07;;
6143;SDS011;3103;49.492;8.474;2024-01-15T05:03:04;16.63;;;7.60;;
6143;SDS011;3103;49.492;8.474;2024-01-15T05:05:32;17.47;;;7.10;;
6143;SDS011;3103;49.492;8.474;2024-01-15T05:07:59;13.13;;;7.43;;
6143;SDS011;3103;49.492;8.474;2024-01-15T05:10:26;17.77;;;7.63;;
6143;SDS011;3103;49.492;8.474;2024-01-15T05:12:53;19.30;;;8.03;;
6143;SDS011;3103;49.492;8.474;2024-01-15T05:15:20;12.97;;;6.97;;
6143;SDS011;3103;49.492;8.474;2024-01-15T05:17:47;14.93;;;6.73;;
6143;SDS011;3103;49.492;8.474;2024-01-15T05:20:14;16.60;;;7.60;;
6143;SDS011;3103;49.492;8.474;2024-01-15T05:22:41;15.60;;;7.80;;
6143;SDS011;3103;49.492;8.474;2024-01-15T05:25:08;17.77;;;8.30;;
6143;SDS011;3103;49.492;8.474;2024-01-15T05:27:35;16.83;;;7.03;;
6143;SDS011;3103;49.492;8.474;2024-01-15T05:30:02;13.23;;;7.20;;
6143;SDS011;3103;49.492;8.474;2024-01-15T05:32:29;15.03;;;6.43;;
6143;SDS011;3103;49.492;8.474;2024-01-15T05:34:56;15.70;;;6.83;;
6143;SDS011;3103;49.492;8.474;2024-01-15T05:37:23;14.73;;;7.30;;
6143;SDS011;3103;49.492;8.474;2024-01-15T05:39:50;18.97;;;8.00;;
6143;SDS011;3103;49.492;8.474;2024-01-15T05:42:17;14.37;;;6.57;;
6143;SDS011;3103;49.492;8.474;2024-01-15T05:44:44;15.30;;;7.77;;
6143;SDS011;3103;49.492;8.474;2024-01-15T05:47:11;14.27;;;7.40;;
6143;SDS011;3103;49.492;8.474;2024-01-15T05:49:37;15.60;;;6.83;;
6143;SDS011;3103;49.492;8.474;2024-01-15T05:52:05;13.17;;;7.20;;
6143;SDS011;3103;49.492;8.474;2024-01-15T05:54:32;16.67;;;6.73;;
6143;SDS011;3103;49.492;8.474;2024-01-15T05:56:59;13.90;;;6.53;;
6143;SDS011;3103;49.492;8.474;2024-01-15T05:59:26;15.43;;;6.60;;
6143;SDS011;3103;49.492;8.474;2024-01-15T06:01:53;15.23;;;6.50;;
6143;SDS011;3103;49.492;8.474;2024-01-15T06:04:20;14.80;;;7.87;;
6143;SDS011;3103;49.492;8.474;2024-01-15T06:06:47;13.57;;;7.37;;
6143;SDS011;3103;49.492;8.474;2024-01-15T06:09:14;13.20;;;7.17;;
6143;SDS011;3103;49.492;8.474;2024-01-15T06:11:41;13.10;;;7.23;;
6143;SDS011;3103;49.492;8.474;2024-01-15T06:14:08;12.30;;;7.10;;
6143;SDS011;3103;49.492;8.474;2024-01-15T06:16:35;14.70;;;6.30;;
6143;SDS011;3103;49.492;8.474;2024-01-15T06:19:02;13.70;;;6.47;;
6143;SDS011;3103;49.492;8.474;2024-01-15T06:21:29;16.47;;;7.33;;
6143;SDS011;3103;49.492;8.474;2024-01-15T06:23:56;14.43;;;7.03;;
6143;SDS011;3103;49.492;8.474;2024-01-15T06:26:23;16.43;;;7.63;;
6143;SDS011;3103;49.492;8.474;2024-01-15T06:28:50;15.63;;;7.30;;
6143;SDS011;3103;49.492;8.474;2024-01-15T06:31:17;16.70;;;8.07;;
6143;SDS011;3103;49.492;8.474;2024-01-15T06:33:44;14.93;;;7.10;;
6143;SDS011;3103;49.492;8.474;2024-01-15T06:36:14;13.67;;;7.20;;
6143;SDS011;3103;49.492;8.474;2024-01-15T06:38:43;14.40;;;7.17;;
6143;SDS011;3103;49.492;8.474;2024-01-15T06:41:10;13.07;;;6.37;;
6143;SDS011;3103;49.492;8.474;2024-01-15T06:43:37;13.63;;;6.53;;
6143;SDS011;3103;49.492;8.474;2024-01-15T06:46:04;16.23;;;7.13;;
6143;SDS011;3103;49.492;8.474;2024-01-15T06:48:34;13.53;;;6.83;;
6143;SDS011;3103;49.492;8.474;2024-01-15T06:51:01;18.73;;;8.27;;
6143;SDS011;3103;49.492;8.474;2024-01-15T06:53:28;14.10;;;6.73;;
6143;SDS011;3103;49.492;8.474;2024-01-15T06:55:55;14.17;;;6.70;;
6143;SDS011;3103;49.492;8.474;2024-01-15T06:58:22;17.13;;;7.73;;
6143;SDS011;3103;49.492;8.474;2024-01-15T07:00:49;14.70;;;7.77;;
6143;SDS011;3103;49.492;8.474;2024-01-15T07:03:16;17.20;;;7.03;;
6143;SDS011;3103;49.492;8.474;2024-01-15T07:05:43;14.43;;;8.00;;
6143;SDS011;3103;49.492;8.474;2024-01-15T07:08:10;20.50;;;8.73;;
6143;SDS011;3103;49.492;8.474;2024-01-15T07:10:37;18.70;;;9.30;;
6143;SDS011;3103;49.492;8.474;2024-01-15T07:13:04;22.87;;;10.23;;
6143;SDS011;3103;49.492;8.474;2024-01-15T07:15:32;31.20;;;14.03;;
6143;SDS011;3103;49.492;8.474;2024-01-15T07:17:59;23.00;;;10.17;;
6143;SDS011;3103;49.492;8.474;2024-01-15T07:20:26;16.30;;;8.47;;
6143;SDS011;3103;49.492;8.474;2024-01-15T07:22:53;17.03;;;7.80;;
6143;SDS011;3103;49.492;8.474;2024-01-15T07:25:20;26.40;;;10.40;;
6143;SDS011;3103;49.492;8.474;2024-01-15T07:27:47;19.67;;;9.00;;
6143;SDS011;3103;49.492;8.474;2024-01-15T07:30:15;15.60;;;7.63;;
6143;SDS011;3103;49.492;8.474;2024-01-15T07:32:42;14.93;;;7.80;;
6143;SDS011;3103;49.492;8.474;2024-01-15T07:35:09;15.00;;;8.23;;
6143;SDS011;3103;49.492;8.474;2024-01-15T07:37:37;15.17;;;7.73;;
6143;SDS011;3103;49.492;8.474;2024-01-15T07:40:04;17.73;;;9.73;;
6143;SDS011;3103;49.492;8.474;2024-01-15T07:42:32;19.50;;;8.27;;
6143;SDS011;3103;49.492;8.474;2024-01-15T07:44:59;18.47;;;8.77;;
6143;SDS011;3103;49.492;8.474;2024-01-15T07:47:30;17.83;;;9.93;;
6143;SDS011;3103;49.492;8.474;2024-01-15T07:49:57;19.73;;;9.17;;
6143;SDS011;3103;49.492;8.474;2024-01-15T07:52:31;21.50;;;9.97;;
6143;SDS011;3103;49.492;8.474;2024-01-15T07:54:58;19.47;;;9.80;;
6143;SDS011;3103;49.492;8.474;2024-01-15T07:57:30;16.20;;;7.87;;
6143;SDS011;3103;49.492;8.474;2024-01-15T07:59:57;17.63;;;9.67;;
6143;SDS011;3103;49.492;8.474;2024-01-15T08:02:24;15.07;;;8.03;;
6143;SDS011;3103;49.492;8.474;2024-01-15T08:04:51;16.23;;;9.80;;
6143;SDS011;3103;49.492;8.474;2024-01-15T08:07:18;18.83;;;9.07;;
6143;SDS011;3103;49.492;8.474;2024-01-15T08:09:45;21.00;;;8.60;;
6143;SDS011;3103;49.492;8.474;2024-01-15T08:12:14;16.33;;;8.13;;
6143;SDS011;3103;49.492;8.474;2024-01-15T08:14:41;15.83;;;8.93;;
6143;SDS011;3103;49.492;8.474;2024-01-15T08:17:08;17.17;;;8.33;;
6143;SDS011;3103;49.492;8.474;2024-01-15T08:19:35;18.77;;;10.00;;
6143;SDS011;3103;49.492;8.474;2024-01-15T08:22:03;25.80;;;11.53;;
6143;SDS011;3103;49.492;8.474;2024-01-15T08:24:30;26.20;;;13.77;;
6143;SDS011;3103;49.492;8.474;2024-01-15T08:26:58;20.27;;;10.10;;
6143;SDS011;3103;49.492;8.474;2024-01-15T08:29:25;25.23;;;11.77;;
6143;SDS011;3103;49.492;8.474;2024-01-15T08:31:52;19.77;;;9.87;;
6143;SDS011;3103;49.492;8.474;2024-01-15T08:34:19;19.13;;;8.40;;
6143;SDS011;3103;49.492;8.474;2024-01-15T08:36:46;21.33;;;10.10;;
6143;SDS011;3103;49.492;8.474;2024-01-15T08:39:13;15.97;;;8.33;;
6143;SDS011;3103;49.492;8.474;2024-01-15T08:41:40;23.00;;;11.30;;
6143;SDS011;3103;49.492;8.474;2024-01-15T08:44:07;18.77;;;9.07;;
6143;SDS011;3103;49.492;8.474;2024-01-15T08:46:34;18.33;;;9.43;;
6143;SDS011;3103;49.492;8.474;2024-01-15T08:49:01;15.90;;;8.93;;
6143;SDS011;3103;49.492;8.474;2024-01-15T08:51:30;19.03;;;9.00;;
6143;SDS011;3103;49.492;8.474;2024-01-15T08:53:57;18.00;;;9.13;;
6143;SDS011;3103;49.492;8.474;2024-01-15T08:56:24;15.10;;;9.13;;
6143;SDS011;3103;49.492;8.474;2024-01-15T08:58:51;19.07;;;9.37;;
6143;SDS011;3103;49.492;8.474;2024-01-15T09:01:18;19.63;;;9.47;;
6143;SDS011;3103;49.492;8.474;2024-01-15T09:03:45;15.87;;;9.13;;
6143;SDS011;3103;49.492;8.474;2024-01-15T09:06:13;20.70;;;9.17;;
6143;SDS011;3103;49.492;8.474;2024-01-15T09:08:44;15.73;;;8.13;;
6143;SDS011;3103;49.492;8.474;2024-01-15T09:11:11;15.20;;;7.80;;
6143;SDS011;3103;49.492;8.474;2024-01-15T09:13:38;18.03;;;9.00;;
6143;SDS011;3103;49.492;8.474;2024-01-15T09:16:06;17.90;;;7.93;;
6143;SDS011;3103;49.492;8.474;2024-01-15T09:18:34;12.40;;;7.40;;
6143;SDS011;3103;49.492;8.474;2024-01-15T09:21:03;15.13;;;7.33;;
6143;SDS011;3103;49.492;8.474;2024-01-15T09:23:30;17.23;;;8.40;;
6143;SDS011;3103;49.492;8.474;2024-01-15T09:25:56;14.03;;;8.50;;
6143;SDS011;3103;49.492;8.474;2024-01-15T09:28:23;20.67;;;8.43;;
6143;SDS011;3103;49.492;8.474;2024-01-15T09:30:50;20.23;;;8.80;;
6143;SDS011;3103;49.492;8.474;2024-01-15T09:33:17;14.17;;;7.67;;
6143;SDS011;3103;49.492;8.474;2024-01-15T09:35:44;15.10;;;8.33;;
6143;SDS011;3103;49.492;8.474;2024-01-15T09:38:11;12.63;;;7.50;;
6143;SDS011;3103;49.492;8.474;2024-01-15T09:40:38;14.63;;;7.47;;
6143;SDS011;3103;49.492;8.474;2024-01-15T09:43:12;13.73;;;7.43;;
6143;SDS011;3103;49.492;8.474;2024-01-15T09:45:40;15.03;;;8.03;;
6143;SDS011;3103;49.492;8.474;2024-01-15T09:48:08;17.13;;;7.77;;
6143;SDS011;3103;49.492;8.474;2024-01-15T09:50:35;14.20;;;7.53;;
6143;SDS011;3103;49.492;8.474;2024-01-15T09:53:02;12.47;;;7.20;;
6143;SDS011;3103;49.492;8.474;2024-01-15T09:55:31;13.07;;;7.33;;
6143;SDS011;3103;49.492;8.474;2024-01-15T09:57:59;14.47;;;8.37;;
6143;SDS011;3103;49.492;8.474;2024-01-15T10:00:28;12.43;;;6.93;;
6143;SDS011;3103;49.492;8.474;2024-01-15T10:02:56;10.53;;;6.47;;
6143;SDS011;3103;49.492;8.474;2024-01-15T10:05:23;11.67;;;6.30;;
6143;SDS011;3103;49.492;8.474;2024-01-15T10:07:50;16.63;;;7.17;;
6143;SDS011;3103;49.492;8.474;2024-01-15T10:10:19;12.50;;;6.73;;
6143;SDS011;3103;49.492;8.474;2024-01-15T10:12:49;10.50;;;6.70;;
6143;SDS011;3103;49.492;8.474;2024-01-15T10:15:16;12.13;;;6.77;;
6143;SDS011;3103;49.492;8.474;2024-01-15T10:17:44;12.07;;;6.60;;
6143;SDS011;3103;49.492;8.474;2024-01-15T10:20:11;10.73;;;6.67;;
6143;SDS011;3103;49.492;8.474;2024-01-15T10:22:42;16.33;;;8.80;;
6143;SDS011;3103;49.492;8.474;2024-01-15T10:25:10;12.30;;;7.40;;
6143;SDS011;3103;49.492;8.474;2024-01-15T10:27:38;14.97;;;7.77;;
6143;SDS011;3103;49.492;8.474;2024-01-15T10:30:08;12.03;;;7.47;;
6143;SDS011;3103;49.492;8.474;2024-01-15T10:32:35;13.47;;;7.40;;
6143;SDS011;3103;49.492;8.474;2024-01-15T10:35:03;13.67;;;7.80;;
6143;SDS011;3103;49.492;8.474;2024-01-15T10:37:32;12.27;;;6.80;;
6143;SDS011;3103;49.492;8.474;2024-01-15T10:40:04;11.50;;;6.47;;
6143;SDS011;3103;49.492;8.474;2024-01-15T10:42:32;12.37;;;7.00;;
6143;SDS011;3103;49.492;8.474;2024-01-15T10:44:59;9.63;;;6.50;;
6143;SDS011;3103;49.492;8.474;2024-01-15T10:47:26;17.57;;;8.80;;
6143;SDS011;3103;49.492;8.474;2024-01-15T10:49:53;11.63;;;6.87;;
6143;SDS011;3103;49.492;8.474;2024-01-15T10:52:20;15.33;;;7.37;;
6143;SDS011;3103;49.492;8.474;2024-01-15T10:54:51;11.23;;;6.03;;
6143;SDS011;3103;49.492;8.474;2024-01-15T10:57:20;9.57;;;6.10;;
6143;SDS011;3103;49.492;8.474;2024-01-15T10:59:49;9.13;;;5.77;;
6143;SDS011;3103;49.492;8.474;2024-01-15T11:02:16;10.67;;;6.60;;
6143;SDS011;3103;49.492;8.474;2024-01-15T11:04:43;9.60;;;5.37;;
6143;SDS011;3103;49.492;8.474;2024-01-15T11:07:10;9.03;;;5.67;;
6143;SDS011;3103;49.492;8.474;2024-01-15T11:09:38;9.33;;;5.70;;
6143;SDS011;3103;49.492;8.474;2024-01-15T11:12:06;12.27;;;6.30;;
6143;SDS011;3103;49.492;8.474;2024-01-15T11:14:40;9.43;;;5.63;;
6143;SDS011;3103;49.492;8.474;2024-01-15T11:17:15;9.07;;;5.30;;
6143;SDS011;3103;49.492;8.474;2024-01-15T11:19:45;9.53;;;5.50;;
6143;SDS011;3103;49.492;8.474;2024-01-15T11:24:56;9.10;;;5.43;;
6143;SDS011;3103;49.492;8.474;2024-01-15T11:27:44;8.50;;;5.03;;
6143;SDS011;3103;49.492;8.474;2024-01-15T11:30:14;8.03;;;5.03;;
6143;SDS011;3103;49.492;8.474;2024-01-15T11:32:41;9.07;;;6.17;;
6143;SDS011;3103;49.492;8.474;2024-01-15T11:35:09;8.27;;;5.37;;
6143;SDS011;3103;49.492;8.474;2024-01-15T11:43:01;8.20;;;5.43;;
6143;SDS011;3103;49.492;8.474;2024-01-15T11:45:30;9.30;;;6.10;;
6143;SDS011;3103;49.492;8.474;2024-01-15T11:50:42;10.97;;;5.77;;
6143;SDS011;3103;49.492;8.474;2024-01-15T11:53:25;11.93;;;6.40;;
6143;SDS011;3103;49.492;8.474;2024-01-15T11:55:58;11.47;;;5.60;;
6143;SDS011;3103;49.492;8.474;2024-01-15T11:58:29;8.43;;;5.23;;
6143;SDS011;3103;49.492;8.474;2024-01-15T12:00:57;10.27;;;6.13;;
6143;SDS011;3103;49.492;8.474;2024-01-15T12:03:24;9.23;;;5.63;;
6143;SDS011;3103;49.492;8.474;2024-01-15T12:05:52;9.83;;;6.33;;
6143;SDS011;3103;49.492;8.474;2024-01-15T12:08:22;8.73;;;5.97;;
6143;SDS011;3103;49.492;8.474;2024-01-15T12:10:50;12.87;;;7.33;;
6143;SDS011;3103;49.492;8.474;2024-01-15T12:13:18;14.33;;;7.70;;
6143;SDS011;3103;49.492;8.474;2024-01-15T12:15:47;11.10;;;6.77;;
6143;SDS011;3103;49.492;8.474;2024-01-15T12:18:16;11.77;;;6.83;;
6143;SDS011;3103;49.492;8.474;2024-01-15T12:20:46;9.63;;;6.57;;
6143;SDS011;3103;49.492;8.474;2024-01-15T12:23:14;14.53;;;7.30;;
6143;SDS011;3103;49.492;8.474;2024-01-15T12:25:43;15.30;;;8.20;;
6143;SDS011;3103;49.492;8.474;2024-01-15T12:28:10;11.83;;;6.80;;
6143;SDS011;3103;49.492;8.474;2024-01-15T12:30:37;10.60;;;6.03;;
6143;SDS011;3103;49.492;8.474;2024-01-15T12:33:07;9.00;;;5.63;;
6143;SDS011;3103;49.492;8.474;2024-01-15T12:35:35;14.50;;;7.60;;
6143;SDS011;3103;49.492;8.474;2024-01-15T12:38:03;10.97;;;5.90;;
6143;SDS011;3103;49.492;8.474;2024-01-15T12:40:31;9.47;;;5.90;;
6143;SDS011;3103;49.492;8.474;2024-01-15T12:43:00;10.10;;;6.00;;
6143;SDS011;3103;49.492;8.474;2024-01-15T12:45:27;20.63;;;11.90;;
6143;SDS011;3103;49.492;8.474;2024-01-15T12:47:54;11.83;;;7.00;;
6143;SDS011;3103;49.492;8.474;2024-01-15T12:50:24;10.20;;;6.97;;
6143;SDS011;3103;49.492;8.474;2024-01-15T12:52:52;9.43;;;5.83;;
6143;SDS011;3103;49.492;8.474;2024-01-15T12:55:19;9.90;;;5.40;;
6143;SDS011;3103;49.492;8.474;2024-01-15T12:57:46;9.73;;;6.30;;
6143;SDS011;3103;49.492;8.474;2024-01-15T13:00:13;11.30;;;6.00;;
6143;SDS011;3103;49.492;8.474;2024-01-15T13:02:42;9.60;;;5.80;;
6143;SDS011;3103;49.492;8.474;2024-01-15T13:05:11;11.00;;;6.07;;
6143;SDS011;3103;49.492;8.474;2024-01-15T13:07:40;9.90;;;5.87;;
6143;SDS011;3103;49.492;8.474;2024-01-15T13:10:10;9.93;;;6.30;;
6143;SDS011;3103;49.492;8.474;2024-01-15T13:12:41;8.17;;;5.30;;
6143;SDS011;3103;49.492;8.474;2024-01-15T13:15:09;9.80;;;6.17;;
6143;SDS011;3103;49.492;8.474;2024-01-15T13:17:42;9.57;;;5.80;;
6143;SDS011;3103;49.492;8.474;2024-01-15T13:20:13;7.73;;;5.33;;
6143;SDS011;3103;49.492;8.474;2024-01-15T13:22:40;10.77;;;6.20;;
6143;SDS011;3103;49.492;8.474;2024-01-15T13:25:11;9.23;;;6.10;;
6143;SDS011;3103;49.492;8.474;2024-01-15T13:27:38;9.37;;;6.17;;
6143;SDS011;3103;49.492;8.474;2024-01-15T13:30:07;9.50;;;6.07;;
6143;SDS011;3103;49.492;8.474;2024-01-15T13:32:35;10.60;;;5.67;;
6143;SDS011;3103;49.492;8.474;2024-01-15T13:35:02;9.07;;;4.90;;
6143;SDS011;3103;49.492;8.474;2024-01-15T13:37:32;10.00;;;6.17;;
6143;SDS011;3103;49.492;8.474;2024-01-15T13:39:59;9.97;;;5.27;;
6143;SDS011;3103;49.492;8.474;2024-01-15T13:42:28;9.53;;;5.57;;
6143;SDS011;3103;49.492;8.474;2024-01-15T13:44:55;9.30;;;5.37;;
6143;SDS011;3103;49.492;8.474;2024-01-15T13:47:22;8.87;;;5.60;;
6143;SDS011;3103;49.492;8.474;2024-01-15T13:49:50;10.47;;;6.00;;
6143;SDS011;3103;49.492;8.474;2024-01-15T13:52:17;10.70;;;6.40;;
6143;SDS011;3103;49.492;8.474;2024-01-15T13:54:47;7.33;;;5.10;;
6143;SDS011;3103;49.492;8.474;2024-01-15T13:57:17;8.40;;;5.67;;
6143;SDS011;3103;49.492;8.474;2024-01-15T13:59:47;10.03;;;5.73;;
6143;SDS011;3103;49.492;8.474;2024-01-15T14:02:16;14.97;;;8.77;;
6143;SDS011;3103;49.492;8.474;2024-01-15T14:04:47;12.10;;;7.50;;
6143;SDS011;3103;49.492;8.474;2024-01-15T14:07:16;19.13;;;8.43;;
6143;SDS011;3103;49.492;8.474;2024-01-15T14:09:44;12.83;;;6.93;;
6143;SDS011;3103;49.492;8.474;2024-01-15T14:12:11;9.97;;;6.70;;
6143;SDS011;3103;49.492;8.474;2024-01-15T14:14:38;12.93;;;7.07;;
6143;SDS011;3103;49.492;8.474;2024-01-15T14:17:07;18.43;;;7.50;;
6143;SDS011;3103;49.492;8.474;2024-01-15T14:19:36;13.73;;;6.67;;
6143;SDS011;3103;49.492;8.474;2024-01-15T14:22:03;11.40;;;6.33;;
6143;SDS011;3103;49.492;8.474;2024-01-15T14:24:30;9.07;;;5.80;;
6143;SDS011;3103;49.492;8.474;2024-01-15T14:26:57;9.03;;;5.27;;
6143;SDS011;3103;49.492;8.474;2024-01-15T14:29:25;10.53;;;6.60;;
6143;SDS011;3103;49.492;8.474;2024-01-15T14:31:53;15.77;;;7.67;;
6143;SDS011;3103;49.492;8.474;2024-01-15T14:34:20;12.10;;;6.33;;
6143;SDS011;3103;49.492;8.474;2024-01-15T14:36:51;12.57;;;6.17;;
6143;SDS011;3103;49.492;8.474;2024-01-15T14:39:21;10.00;;;6.10;;
6143;SDS011;3103;49.492;8.474;2024-01-15T14:41:51;8.93;;;4.97;;
6143;SDS011;3103;49.492;8.474;2024-01-15T14:44:19;6.80;;;4.70;;
6143;SDS011;3103;49.492;8.474;2024-01-15T14:46:46;7.70;;;5.40;;
6143;SDS011;3103;49.492;8.474;2024-01-15T14:49:13;7.63;;;4.80;;
6143;SDS011;3103;49.492;8.474;2024-01-15T14:51:41;5.87;;;4.33;;
6143;SDS011;3103;49.492;8.474;2024-01-15T14:54:10;5.43;;;4.13;;
6143;SDS011;3103;49.492;8.474;2024-01-15T14:56:38;8.80;;;5.10;;
6143;SDS011;3103;49.492;8.474;2024-01-15T14:59:05;9.30;;;5.27;;
6143;SDS011;3103;49.492;8.474;2024-01-15T15:01:31;6.47;;;4.67;;
6143;SDS011;3103;49.492;8.474;2024-01-15T15:03:59;8.80;;;5.33;;
6143;SDS011;3103;49.492;8.474;2024-01-15T15:06:26;7.40;;;4.20;;
6143;SDS011;3103;49.492;8.474;2024-01-15T15:08:54;10.67;;;5.17;;
6143;SDS011;3103;49.492;8.474;2024-01-15T15:11:25;7.33;;;4.77;;
6143;SDS011;3103;49.492;8.474;2024-01-15T15:13:55;7.97;;;4.60;;
6143;SDS011;3103;49.492;8.474;2024-01-15T15:16:22;6.67;;;3.97;;
6143;SDS011;3103;49.492;8.474;2024-01-15T15:18:49;7.80;;;4.23;;